sensor_id;sensor_type;location;lat;lon;timestamp;pressure;altitude;pressure_sealevel;temperature;humidity
57102;BME280;42982;54.558;18.508;2023-06-14T04:14:23;101178.19;;;16.58;74.14
57102;BME280;42982;54.558;18.508;2023-06-14T04:15:25;101177.06;;;16.73;73.85
57102;BME280;42982;54.558;18.508;2023-06-14T04:16:33;101168.88;;;16.78;73.41
57102;BME280;42982;54.558;18.508;2023-06-14T04:17:36;101176.22;;;16.77;73.40
57102;BME280;42982;54.558;18.508;2023-06-14T04:18:40;101172.06;;;16.80;73.12
57102;BME280;42982;54.558;18.508;2023-06-14T04:19:46;101183.44;;;16.82;72.81
57102;BME280;42982;54.558;18.508;2023-06-14T04:21:09;101176.75;;;17.24;72.16
57102;BME280;42982;54.558;18.508;2023-06-14T04:22:10;101186.94;;;17.64;71.23
57102;BME280;42982;54.558;18.508;2023-06-14T04:23:17;101180.13;;;17.97;70.52
57102;BME280;42982;54.558;18.508;2023-06-14T04:24:20;101184.88;;;18.23;69.62
57102;BME280;42982;54.558;18.508;2023-06-14T04:25:26;101185.59;;;18.46;68.83
57102;BME280;42982;54.558;18.508;2023-06-14T04:26:30;101183.97;;;18.53;67.97
57102;BME280;42982;54.558;18.508;2023-06-14T04:27:35;101181.16;;;18.67;67.52
57102;BME280;42982;54.558;18.508;2023-06-14T04:28:42;101182.31;;;18.84;67.14
57102;BME280;42982;54.558;18.508;2023-06-14T04:29:50;101178.63;;;18.97;66.24
57102;BME280;42982;54.558;18.508;2023-06-14T04:31:01;101168.25;;;19.08;65.76
57102;BME280;42982;54.558;18.508;2023-06-14T04:32:08;101169.50;;;19.10;65.70
57102;BME280;42982;54.558;18.508;2023-06-14T04:33:13;101181.53;;;19.09;65.55
57102;BME280;42982;54.558;18.508;2023-06-14T04:34:15;101183.13;;;19.10;65.32
57102;BME280;42982;54.558;18.508;2023-06-14T04:35:22;101175.13;;;19.14;65.10
57102;BME280;42982;54.558;18.508;2023-06-14T04:36:32;101171.59;;;19.31;64.77
57102;BME280;42982;54.558;18.508;2023-06-14T04:37:41;101170.09;;;19.51;64.63
57102;BME280;42982;54.558;18.508;2023-06-14T04:38:47;101169.13;;;19.64;64.59
57102;BME280;42982;54.558;18.508;2023-06-14T04:39:51;101177.63;;;19.80;64.16
57102;BME280;42982;54.558;18.508;2023-06-14T04:40:53;101171.59;;;19.95;63.38
57102;BME280;42982;54.558;18.508;2023-06-14T04:41:56;101168.69;;;20.09;62.77
57102;BME280;42982;54.558;18.508;2023-06-14T04:42:58;101170.03;;;20.24;62.58
57102;BME280;42982;54.558;18.508;2023-06-14T04:44:03;101168.69;;;20.38;62.11
57102;BME280;42982;54.558;18.508;2023-06-14T04:45:10;101169.75;;;20.55;61.54
57102;BME280;42982;54.558;18.508;2023-06-14T04:46:15;101176.47;;;20.57;60.96
57102;BME280;42982;54.558;18.508;2023-06-14T04:47:18;101172.41;;;20.64;60.38
57102;BME280;42982;54.558;18.508;2023-06-14T04:48:20;101170.44;;;20.73;60.63
57102;BME280;42982;54.558;18.508;2023-06-14T04:49:23;101175.72;;;20.78;60.17
57102;BME280;42982;54.558;18.508;2023-06-14T04:50:30;101165.38;;;20.83;60.26
57102;BME280;42982;54.558;18.508;2023-06-14T04:51:36;101168.03;;;20.92;59.91
57102;BME280;42982;54.558;18.508;2023-06-14T04:52:41;101176.97;;;21.01;59.58
57102;BME280;42982;54.558;18.508;2023-06-14T04:53:48;101173.25;;;21.06;59.44
57102;BME280;42982;54.558;18.508;2023-06-14T04:54:53;101177.22;;;21.09;58.69
57102;BME280;42982;54.558;18.508;2023-06-14T04:55:58;101172.78;;;21.04;58.97
57102;BME280;42982;54.558;18.508;2023-06-14T04:57:02;101170.69;;;21.22;58.61
57102;BME280;42982;54.558;18.508;2023-06-14T04:58:07;101169.75;;;21.18;58.17
57102;BME280;42982;54.558;18.508;2023-06-14T04:59:09;101164.56;;;21.25;57.82
57102;BME280;42982;54.558;18.508;2023-06-14T05:00:16;101172.63;;;21.42;57.96
57102;BME280;42982;54.558;18.508;2023-06-14T05:01:20;101172.75;;;21.46;57.44
57102;BME280;42982;54.558;18.508;2023-06-14T05:02:27;101171.03;;;21.41;57.28
57102;BME280;42982;54.558;18.508;2023-06-14T05:03:34;101168.91;;;21.59;57.51
57102;BME280;42982;54.558;18.508;2023-06-14T05:04:40;101173.84;;;21.78;57.37
57102;BME280;42982;54.558;18.508;2023-06-14T05:05:48;101171.81;;;21.87;56.72
57102;BME280;42982;54.558;18.508;2023-06-14T05:06:54;101173.88;;;22.03;56.13
57102;BME280;42982;54.558;18.508;2023-06-14T05:08:00;101173.25;;;22.18;55.93
57102;BME280;42982;54.558;18.508;2023-06-14T05:09:03;101175.19;;;22.30;55.45
57102;BME280;42982;54.558;18.508;2023-06-14T05:10:09;101178.50;;;22.35;55.01
57102;BME280;42982;54.558;18.508;2023-06-14T05:11:14;101183.63;;;22.25;54.75
57102;BME280;42982;54.558;18.508;2023-06-14T05:12:23;101182.91;;;22.15;54.94
57102;BME280;42982;54.558;18.508;2023-06-14T05:13:32;101185.53;;;22.12;54.79
57102;BME280;42982;54.558;18.508;2023-06-14T05:14:36;101185.75;;;22.07;54.78
57102;BME280;42982;54.558;18.508;2023-06-14T05:15:42;101177.75;;;21.89;55.16
57102;BME280;42982;54.558;18.508;2023-06-14T05:16:46;101181.97;;;21.99;55.36
57102;BME280;42982;54.558;18.508;2023-06-14T05:17:55;101183.94;;;21.98;55.81
57102;BME280;42982;54.558;18.508;2023-06-14T05:18:57;101185.75;;;21.94;55.75
57102;BME280;42982;54.558;18.508;2023-06-14T05:20:02;101187.00;;;22.09;55.31
57102;BME280;42982;54.558;18.508;2023-06-14T05:21:04;101181.19;;;21.98;55.20
57102;BME280;42982;54.558;18.508;2023-06-14T05:22:08;101184.59;;;21.95;55.03
57102;BME280;42982;54.558;18.508;2023-06-14T05:23:16;101181.41;;;22.06;55.00
57102;BME280;42982;54.558;18.508;2023-06-14T05:24:21;101182.56;;;22.05;55.10
57102;BME280;42982;54.558;18.508;2023-06-14T05:25:27;101177.78;;;22.14;55.08
57102;BME280;42982;54.558;18.508;2023-06-14T05:26:33;101186.31;;;22.12;55.10
57102;BME280;42982;54.558;18.508;2023-06-14T05:27:40;101181.44;;;22.18;55.21
57102;BME280;42982;54.558;18.508;2023-06-14T05:28:42;101172.78;;;22.28;54.74
57102;BME280;42982;54.558;18.508;2023-06-14T05:29:49;101182.47;;;22.38;54.40
57102;BME280;42982;54.558;18.508;2023-06-14T05:30:51;101185.78;;;22.43;54.75
57102;BME280;42982;54.558;18.508;2023-06-14T05:31:53;101181.09;;;22.56;54.26
57102;BME280;42982;54.558;18.508;2023-06-14T05:32:55;101182.56;;;22.54;54.09
57102;BME280;42982;54.558;18.508;2023-06-14T05:33:59;101178.69;;;22.67;53.62
57102;BME280;42982;54.558;18.508;2023-06-14T05:35:12;101181.28;;;22.76;53.06
57102;BME280;42982;54.558;18.508;2023-06-14T05:36:17;101176.34;;;22.81;53.27
57102;BME280;42982;54.558;18.508;2023-06-14T05:37:22;101182.63;;;22.94;52.99
57102;BME280;42982;54.558;18.508;2023-06-14T05:38:29;101177.91;;;23.07;51.99
57102;BME280;42982;54.558;18.508;2023-06-14T05:39:34;101186.84;;;23.04;49.18
57102;BME280;42982;54.558;18.508;2023-06-14T05:40:37;101181.31;;;22.14;49.85
57102;BME280;42982;54.558;18.508;2023-06-14T05:41:42;101183.97;;;22.23;50.41
57102;BME280;42982;54.558;18.508;2023-06-14T05:42:45;101179.28;;;22.48;50.54
57102;BME280;42982;54.558;18.508;2023-06-14T05:43:47;101180.47;;;22.75;50.51
57102;BME280;42982;54.558;18.508;2023-06-14T05:44:48;101177.94;;;22.95;50.62
57102;BME280;42982;54.558;18.508;2023-06-14T05:45:53;101180.28;;;23.21;49.98
57102;BME280;42982;54.558;18.508;2023-06-14T05:46:58;101183.31;;;23.31;49.48
57102;BME280;42982;54.558;18.508;2023-06-14T05:48:04;101177.34;;;23.29;48.13
57102;BME280;42982;54.558;18.508;2023-06-14T05:49:06;101182.38;;;23.40;46.81
57102;BME280;42982;54.558;18.508;2023-06-14T05:50:07;101183.38;;;23.63;46.55
57102;BME280;42982;54.558;18.508;2023-06-14T05:51:10;101184.84;;;23.73;44.83
57102;BME280;42982;54.558;18.508;2023-06-14T05:52:19;101180.75;;;23.82;44.92
57102;BME280;42982;54.558;18.508;2023-06-14T05:53:23;101178.31;;;23.93;45.51
57102;BME280;42982;54.558;18.508;2023-06-14T05:54:28;101178.03;;;23.98;45.73
57102;BME280;42982;54.558;18.508;2023-06-14T05:55:29;101179.88;;;24.10;46.16
57102;BME280;42982;54.558;18.508;2023-06-14T05:56:36;101180.50;;;24.19;44.57
57102;BME280;42982;54.558;18.508;2023-06-14T05:57:42;101178.22;;;24.21;44.09
57102;BME280;42982;54.558;18.508;2023-06-14T05:58:44;101183.69;;;24.21;43.92
57102;BME280;42982;54.558;18.508;2023-06-14T05:59:46;101183.00;;;24.24;44.16
57102;BME280;42982;54.558;18.508;2023-06-14T06:00:55;101175.63;;;24.28;43.72
57102;BME280;42982;54.558;18.508;2023-06-14T06:02:01;101182.50;;;24.38;43.27
57102;BME280;42982;54.558;18.508;2023-06-14T06:03:06;101184.41;;;24.50;43.25
57102;BME280;42982;54.558;18.508;2023-06-14T06:04:10;101181.22;;;24.67;43.85
57102;BME280;42982;54.558;18.508;2023-06-14T06:05:12;101180.16;;;24.72;43.43
57102;BME280;42982;54.558;18.508;2023-06-14T06:06:14;101181.09;;;24.80;43.62
57102;BME280;42982;54.558;18.508;2023-06-14T06:07:19;101174.97;;;24.86;42.80
57102;BME280;42982;54.558;18.508;2023-06-14T06:08:23;101184.22;;;25.13;42.52
57102;BME280;42982;54.558;18.508;2023-06-14T06:09:25;101177.44;;;25.11;42.20
57102;BME280;42982;54.558;18.508;2023-06-14T06:10:26;101182.03;;;25.23;42.51
57102;BME280;42982;54.558;18.508;2023-06-14T06:11:33;101182.75;;;25.19;41.51
57102;BME280;42982;54.558;18.508;2023-06-14T06:12:35;101179.53;;;25.37;41.08
